»·PEaware :: N653AW KPSC-KYKM

N653AW :: KPSC-KYKM

FLIGHT INFORMATION

Flight Status: Arrived
Operator: Privately registered:
United States
More flights under this callsign
Pilot: Sergei F. (8485)
Aircraft: AIRBUS A320
(A320)
More flights by this aircraft type
Origin: KPSC Tri-Cities
United States
Destination: KYKM Yakima Air Term/Mcallister
United States
More flights between these airports :: More routes between these airports
Route: PSC7 YKM
File this flight plan on PilotEdge
Remarks:
Altitude:
(Current/Filed)
8,000ft
Speed:
(Current/Filed)
400kts
Departed: 23-May-20 07:28 PM
Arrived: 23-May-20 08:39 PM
Distance/Time
Traveled:
62nm/1:11
Distance/Time
To Go:
Arrived

Flight Plot

Page will automatically refresh every two minutes.


Map Options




Map Legend


Flown Route
Filed Route
Departure Airport
Arrival Airport
Navaid (VOR, NDB)
Fix

Horizontal Profiles

Position Reports

Time Latitude Longitude Heading Altitude Ground
Speed
23-May-20 18:52 46.259262 -119.113538 268 407ft 0kts
23-May-20 18:53 46.259262 -119.113538 268 407ft 0kts
23-May-20 18:54 46.259262 -119.113538 268 407ft 0kts
23-May-20 18:55 46.259262 -119.113538 268 407ft 0kts
23-May-20 18:56 46.259262 -119.113538 268 407ft 0kts
23-May-20 18:57 46.259262 -119.113538 268 407ft 0kts
23-May-20 18:58 46.259262 -119.113538 268 407ft 0kts
23-May-20 18:59 46.259262 -119.113538 268 407ft 0kts
23-May-20 19:00 46.259262 -119.113538 268 407ft 0kts
23-May-20 19:01 46.259262 -119.113538 268 407ft 0kts
23-May-20 19:02 46.259262 -119.113538 268 407ft 0kts
23-May-20 19:03 46.259262 -119.113538 268 407ft 0kts
23-May-20 19:04 46.259262 -119.113538 268 407ft 0kts
23-May-20 19:05 46.259262 -119.113538 268 407ft 0kts
23-May-20 19:06 46.259262 -119.113538 268 407ft 0kts
23-May-20 19:07 46.259262 -119.113538 268 407ft 0kts
23-May-20 19:08 46.259262 -119.113538 268 407ft 0kts
23-May-20 19:09 46.259262 -119.113538 268 407ft 0kts
23-May-20 19:10 46.259262 -119.113538 268 407ft 0kts
23-May-20 19:11 46.259262 -119.113538 268 407ft 0kts
23-May-20 19:12 46.259262 -119.113538 268 407ft 0kts
23-May-20 19:13 46.259265 -119.113326 268 407ft 2kts
23-May-20 19:14 46.259579 -119.112626 225 407ft 2kts
23-May-20 19:15 46.259636 -119.112003 319 408ft 1kts
23-May-20 19:16 46.259615 -119.111976 317 408ft 0kts
23-May-20 19:17 46.259615 -119.111976 317 408ft 0kts
23-May-20 19:18 46.259615 -119.111976 317 408ft 0kts
23-May-20 19:20 46.259733 -119.112134 317 408ft 2kts
23-May-20 19:21 46.260086 -119.112618 315 408ft 1kts
23-May-20 19:22 46.260858 -119.113712 316 410ft 5kts
23-May-20 19:23 46.260996 -119.116459 246 410ft 12kts
23-May-20 19:24 46.259503 -119.121493 246 410ft 15kts
23-May-20 19:25 46.257659 -119.127660 246 410ft 18kts
23-May-20 19:26 46.255797 -119.131526 226 410ft 11kts
23-May-20 19:27 46.256410 -119.132828 45 410ft 2kts
23-May-20 19:28 46.275482 -119.104889 46 1361ft 164kts
23-May-20 19:29 46.312896 -119.051912 24 3935ft 229kts
23-May-20 19:30 46.363162 -119.100776 283 6793ft 278kts
23-May-20 19:31 46.380135 -119.210030 283 8006ft 280kts
23-May-20 19:32 46.397596 -119.320809 283 8018ft 282kts
23-May-20 19:33 46.415244 -119.431875 283 8018ft 282kts
23-May-20 19:33 46.426737 -119.525268 281 8018ft 282kts
23-May-20 19:35 46.445031 -119.653099 282 6855ft 277kts
23-May-20 19:36 46.461860 -119.759647 283 5544ft 272kts
23-May-20 19:36 46.475619 -119.845565 283 5053ft 245kts
23-May-20 19:38 46.490742 -119.949812 273 5033ft 227kts
23-May-20 19:39 46.502510 -120.040049 279 5039ft 226kts
23-May-20 19:39 46.514774 -120.113987 280 5069ft 227kts
23-May-20 19:40 46.531000 -120.203009 280 5053ft 227kts
23-May-20 19:42 46.544177 -120.280865 279 5016ft 227kts
23-May-20 19:46 46.259262 -119.113538 268 407ft 0kts
23-May-20 19:47 46.259262 -119.113538 268 407ft 0kts
23-May-20 19:48 46.259262 -119.113538 268 407ft 0kts
23-May-20 19:49 46.259262 -119.113538 268 407ft 0kts
23-May-20 19:50 46.259262 -119.113538 268 407ft 0kts
23-May-20 19:51 46.259262 -119.113538 268 407ft 0kts
23-May-20 19:52 46.259262 -119.113538 268 407ft 0kts
23-May-20 19:53 46.259262 -119.113538 268 407ft 0kts
23-May-20 19:54 46.259262 -119.113538 268 407ft 0kts
23-May-20 19:55 46.259262 -119.113538 268 407ft 0kts
23-May-20 19:56 46.259262 -119.113538 268 407ft 0kts
23-May-20 19:57 46.259262 -119.113538 268 407ft 0kts
23-May-20 19:58 46.259262 -119.113538 268 407ft 0kts
23-May-20 19:59 46.259262 -119.113538 268 407ft 0kts
23-May-20 20:00 46.259262 -119.113538 268 407ft 0kts
23-May-20 20:01 46.259262 -119.113538 268 407ft 0kts
23-May-20 20:02 46.259262 -119.113538 268 407ft 0kts
23-May-20 20:03 46.259262 -119.113538 268 407ft 0kts
23-May-20 20:04 46.259262 -119.113538 268 407ft 0kts
23-May-20 20:05 46.259262 -119.113537 268 407ft 0kts
23-May-20 20:06 46.259444 -119.112926 222 407ft 2kts
23-May-20 20:07 46.259777 -119.112255 287 407ft 2kts
23-May-20 20:08 46.259679 -119.112062 317 408ft 0kts
23-May-20 20:09 46.259679 -119.112062 317 408ft 0kts
23-May-20 20:10 46.259679 -119.112062 317 408ft 0kts
23-May-20 20:11 46.260399 -119.112847 358 409ft 4kts
23-May-20 20:12 46.261750 -119.113904 273 410ft 7kts
23-May-20 20:13 46.260469 -119.118231 246 410ft 15kts
23-May-20 20:14 46.258574 -119.124601 246 409ft 18kts
23-May-20 20:15 46.256528 -119.130373 224 409ft 12kts
23-May-20 20:16 46.255597 -119.131830 227 410ft 0kts
23-May-20 20:17 46.255597 -119.131830 227 410ft 0kts
23-May-20 20:18 46.255547 -119.132706 305 410ft 6kts
23-May-20 20:19 46.258579 -119.129623 46 410ft 78kts
23-May-20 20:20 46.286090 -119.088314 46 2636ft 160kts
23-May-20 20:21 46.328233 -119.106805 288 4865ft 249kts
23-May-20 20:22 46.347260 -119.210161 285 7679ft 278kts
23-May-20 20:23 46.367283 -119.319420 285 8024ft 281kts
23-May-20 20:24 46.386641 -119.429766 285 8027ft 282kts
23-May-20 20:25 46.406630 -119.539785 285 8027ft 282kts
23-May-20 20:26 46.426817 -119.649458 285 8027ft 282kts
23-May-20 20:27 46.446281 -119.756129 284 7546ft 278kts
23-May-20 20:28 46.465745 -119.861628 285 6163ft 275kts
23-May-20 20:29 46.485242 -119.968599 285 5027ft 273kts
23-May-20 20:30 46.502823 -120.066021 285 5008ft 230kts
23-May-20 20:31 46.517668 -120.148547 285 5012ft 205kts
23-May-20 20:32 46.531736 -120.226844 285 4388ft 188kts
23-May-20 20:33 46.536117 -120.297657 269 3265ft 170kts
23-May-20 20:34 46.536140 -120.361988 270 2620ft 154kts
23-May-20 20:35 46.538122 -120.421749 285 2530ft 147kts
23-May-20 20:36 46.551679 -120.476929 290 1914ft 144kts
23-May-20 20:37 46.565436 -120.531089 291 1110ft 143kts
23-May-20 20:38 46.570831 -120.549315 25 1085ft 6kts
23-May-20 20:39 46.570443 -120.546439 110 1080ft 13kts
23-May-20 20:40 46.569419 -120.542340 109 1073ft 6kts
23-May-20 20:41 46.568792 -120.539825 110 1068ft 7kts
23-May-20 20:42 46.569166 -120.538774 269 1066ft 1kts
23-May-20 20:43 46.569065 -120.539059 230 1066ft 0kts
23-May-20 20:44 46.569062 -120.539064 230 1066ft 0kts
23-May-20 20:45 46.569062 -120.539064 230 1066ft 0kts
23-May-20 20:46 46.569062 -120.539064 230 1066ft 0kts
23-May-20 20:47 46.569062 -120.539064 230 1066ft 0kts

Navigation Log

Ident Type
Flight plan parsing failed, navigation log unavailable